Time;durP1;ratioP1;P1;durP2;ratioP2;P2;SDS_P1;SDS_P2;PMS_P1;PMS_P2;Temp;Humidity;BMP_temperature;BMP_pressure;BME280_temperature;BME280_humidity;BME280_pressure;Samples;Min_cycle;Max_cycle;Signal;HPM_P1;HPM_P2
2024/01/30 00:01:32;;;;;;;7.03;6.33;;;4.20;49.00;;;;;;5070903;28;20263;-62
2024/01/30 00:03:58;;;;;;;8.17;6.20;;;4.20;48.90;;;;;;5064240;28;20215;-62
2024/01/30 00:06:25;;;;;;;8.77;6.30;;;4.10;49.20;;;;;;5071181;28;20217;-63
2024/01/30 00:08:53;;;;;;;7.47;6.20;;;4.10;49.20;;;;;;5074563;28;20636;-62
2024/01/30 00:11:19;;;;;;;10.50;7.17;;;4.00;49.80;;;;;;5074774;28;20232;-62
2024/01/30 00:13:46;;;;;;;8.07;6.50;;;4.10;49.60;;;;;;5074938;28;20207;-63
2024/01/30 00:16:12;;;;;;;7.73;6.43;;;3.90;49.70;;;;;;5081684;28;20221;-62
2024/01/30 00:18:39;;;;;;;7.30;6.17;;;3.90;50.20;;;;;;5075540;28;20697;-62
2024/01/30 00:21:06;;;;;;;10.77;6.97;;;4.50;49.70;;;;;;5063353;28;20226;-62
2024/01/30 00:23:32;;;;;;;7.10;6.40;;;4.40;48.90;;;;;;5075971;28;20346;-63
2024/01/30 00:25:59;;;;;;;7.87;6.30;;;4.10;49.60;;;;;;5077960;28;20205;-62
2024/01/30 00:28:25;;;;;;;8.80;7.10;;;4.10;50.30;;;;;;5078263;28;20208;-62
2024/01/30 00:30:52;;;;;;;8.00;6.97;;;4.40;49.70;;;;;;5078352;28;20236;-63
2024/01/30 00:33:18;;;;;;;7.97;6.57;;;4.10;49.60;;;;;;5076223;28;20275;-62
2024/01/30 00:35:45;;;;;;;10.60;7.17;;;4.00;50.30;;;;;;5074758;28;20201;-62
2024/01/30 00:38:11;;;;;;;9.77;6.87;;;4.10;50.50;;;;;;5068588;28;20275;-62
2024/01/30 00:40:38;;;;;;;10.23;7.33;;;3.90;50.50;;;;;;5068142;28;20214;-62
2024/01/30 00:43:04;;;;;;;7.67;6.83;;;3.90;50.70;;;;;;5070535;28;20217;-62
2024/01/30 00:45:31;;;;;;;8.90;6.90;;;3.90;51.30;;;;;;5077224;28;20263;-62
2024/01/30 00:47:57;;;;;;;7.67;6.10;;;4.30;50.00;;;;;;5074038;28;20198;-62
2024/01/30 00:50:24;;;;;;;6.77;6.07;;;3.90;50.20;;;;;;5073438;28;20199;-62
2024/01/30 00:52:50;;;;;;;9.90;6.53;;;3.70;51.10;;;;;;5073967;28;20225;-61
2024/01/30 00:55:17;;;;;;;9.20;7.20;;;3.80;51.70;;;;;;5071970;28;20568;-62
2024/01/30 00:57:43;;;;;;;8.97;6.40;;;3.80;50.50;;;;;;5067045;28;20226;-62
2024/01/30 01:00:10;;;;;;;7.57;6.77;;;3.80;51.30;;;;;;5074810;28;20206;-62
2024/01/30 01:02:36;;;;;;;8.83;6.87;;;3.90;50.90;;;;;;5074023;28;20229;-61
2024/01/30 01:05:03;;;;;;;9.07;6.60;;;3.70;51.30;;;;;;5073508;28;20241;-62
2024/01/30 01:07:30;;;;;;;9.43;6.67;;;3.80;51.40;;;;;;5060948;28;20642;-62
2024/01/30 01:09:56;;;;;;;9.97;7.17;;;3.60;51.50;;;;;;5077441;28;20236;-62
2024/01/30 01:12:23;;;;;;;7.63;6.67;;;3.70;51.90;;;;;;5071432;28;20230;-62
2024/01/30 01:14:49;;;;;;;9.70;7.23;;;3.80;51.20;;;;;;5065221;28;20203;-62
2024/01/30 01:17:16;;;;;;;8.33;6.77;;;3.70;51.40;;;;;;5071647;28;20255;-62
2024/01/30 01:19:42;;;;;;;8.33;6.33;;;3.60;51.90;;;;;;5067885;28;20641;-62
2024/01/30 01:22:09;;;;;;;8.27;6.53;;;3.50;52.00;;;;;;5073556;28;20229;-62
2024/01/30 01:24:35;;;;;;;10.10;7.23;;;3.90;51.70;;;;;;5073449;28;20213;-62
2024/01/30 01:27:02;;;;;;;6.67;6.03;;;3.90;51.50;;;;;;5073713;28;20251;-62
2024/01/30 01:29:29;;;;;;;9.13;6.97;;;3.80;51.10;;;;;;5071365;28;20671;-62
2024/01/30 01:31:55;;;;;;;9.63;7.00;;;3.50;51.80;;;;;;5073402;28;20221;-62
2024/01/30 01:34:22;;;;;;;7.50;6.17;;;3.50;51.90;;;;;;5067106;28;20209;-62
2024/01/30 01:36:48;;;;;;;9.97;6.53;;;3.50;52.80;;;;;;5060362;28;20202;-62
2024/01/30 01:39:15;;;;;;;7.30;6.53;;;3.30;52.70;;;;;;5073172;28;20366;-62
2024/01/30 01:41:42;;;;;;;7.43;6.67;;;3.30;52.90;;;;;;5072659;28;20244;-62
2024/01/30 01:44:08;;;;;;;9.87;7.13;;;3.30;53.00;;;;;;5073107;28;20258;-62
2024/01/30 01:46:35;;;;;;;7.60;6.87;;;3.40;53.30;;;;;;5079879;28;20237;-62
2024/01/30 01:49:01;;;;;;;10.20;6.50;;;3.80;52.00;;;;;;5072369;28;20643;-62
2024/01/30 01:51:28;;;;;;;7.87;6.73;;;3.80;51.30;;;;;;5072812;28;20226;-62
2024/01/30 01:53:54;;;;;;;7.53;5.77;;;3.50;51.80;;;;;;5064554;28;20261;-62
2024/01/30 01:56:21;;;;;;;6.70;5.90;;;3.60;52.10;;;;;;5080854;28;20223;-62
2024/01/30 01:58:47;;;;;;;7.43;5.83;;;3.90;51.10;;;;;;5072318;28;20661;-62
2024/01/30 02:01:14;;;;;;;11.17;6.17;;;3.70;51.30;;;;;;5080161;28;20226;-62
2024/01/30 02:03:40;;;;;;;11.17;6.40;;;3.50;51.80;;;;;;5070431;28;20245;-62
2024/01/30 02:06:07;;;;;;;6.70;5.93;;;3.40;52.20;;;;;;5064698;28;20255;-62
2024/01/30 02:08:33;;;;;;;6.27;5.57;;;3.40;52.50;;;;;;5072649;28;20650;-62
2024/01/30 02:11:00;;;;;;;7.13;6.00;;;3.70;52.10;;;;;;5072388;28;20317;-61
2024/01/30 02:13:26;;;;;;;7.33;6.10;;;3.60;52.00;;;;;;5064974;28;20234;-62
2024/01/30 02:15:53;;;;;;;9.53;5.73;;;3.50;51.80;;;;;;5075202;28;20258;-62
2024/01/30 02:18:19;;;;;;;7.30;5.90;;;3.40;52.20;;;;;;5072205;28;20221;-62
2024/01/30 02:20:46;;;;;;;7.20;5.83;;;3.40;52.60;;;;;;5071540;28;20268;-62
2024/01/30 02:23:12;;;;;;;7.27;5.73;;;3.50;52.00;;;;;;5072246;28;20244;-61
2024/01/30 02:25:43;;;;;;;6.33;5.70;;;3.40;52.00;;;;;;5072229;28;20248;-62
2024/01/30 02:28:10;;;;;;;7.60;5.97;;;3.30;52.40;;;;;;5066394;28;20234;-62
2024/01/30 02:30:36;;;;;;;7.63;6.10;;;3.20;52.60;;;;;;5063228;28;20206;-62
2024/01/30 02:33:03;;;;;;;7.10;5.90;;;3.40;53.00;;;;;;5072027;28;20256;-62
2024/01/30 02:35:29;;;;;;;6.63;5.80;;;3.70;52.10;;;;;;5072398;28;20625;-62
2024/01/30 02:37:56;;;;;;;7.27;6.07;;;3.80;51.30;;;;;;5072884;28;20255;-62
2024/01/30 02:40:22;;;;;;;7.80;5.63;;;3.50;51.50;;;;;;5075301;28;20687;-62
2024/01/30 02:42:49;;;;;;;8.63;6.40;;;3.40;52.70;;;;;;5073150;28;20277;-62
2024/01/30 02:45:15;;;;;;;6.97;5.40;;;3.40;52.40;;;;;;5072570;28;20205;-62
2024/01/30 02:47:42;;;;;;;6.07;5.53;;;3.30;52.40;;;;;;5062972;28;20358;-63
2024/01/30 02:50:08;;;;;;;9.47;5.80;;;3.30;52.60;;;;;;5071150;28;20585;-62
2024/01/30 02:52:35;;;;;;;6.00;5.47;;;3.20;52.60;;;;;;5070533;28;20256;-62
2024/01/30 02:55:01;;;;;;;5.83;5.23;;;3.10;53.10;;;;;;5071360;28;20298;-62
2024/01/30 02:57:28;;;;;;;6.60;5.67;;;3.10;53.10;;;;;;5076904;28;20300;-62
2024/01/30 02:59:54;;;;;;;7.20;5.50;;;3.10;53.10;;;;;;5071719;28;20660;-62
2024/01/30 03:02:21;;;;;;;6.00;5.50;;;3.10;53.10;;;;;;5072518;28;20721;-62
2024/01/30 03:04:47;;;;;;;7.00;5.47;;;3.50;53.20;;;;;;5058420;28;20230;-62
2024/01/30 03:07:14;;;;;;;8.97;6.07;;;3.60;52.10;;;;;;5067211;28;20640;-62
2024/01/30 03:09:41;;;;;;;7.33;5.90;;;3.30;52.30;;;;;;5069062;28;20448;-63
2024/01/30 03:12:07;;;;;;;6.47;5.50;;;3.30;53.30;;;;;;5062702;28;20232;-62
2024/01/30 03:14:34;;;;;;;6.77;5.80;;;3.50;52.80;;;;;;5071917;28;20209;-63
2024/01/30 03:17:00;;;;;;;5.60;5.10;;;3.30;52.50;;;;;;5076240;28;20193;-62
2024/01/30 03:19:27;;;;;;;6.63;5.40;;;3.20;53.00;;;;;;5059549;28;20217;-62
2024/01/30 03:21:53;;;;;;;6.37;5.43;;;3.10;53.10;;;;;;5065611;28;20493;-62
2024/01/30 03:24:19;;;;;;;6.33;5.60;;;3.30;53.30;;;;;;5072186;28;20248;-62
2024/01/30 03:26:46;;;;;;;6.10;5.50;;;3.30;52.90;;;;;;5072670;28;20235;-62
2024/01/30 03:29:12;;;;;;;6.47;5.30;;;3.30;52.80;;;;;;5071448;28;20198;-62
2024/01/30 03:31:39;;;;;;;5.80;5.00;;;3.20;53.20;;;;;;5072641;28;20271;-62
2024/01/30 03:34:05;;;;;;;7.47;5.80;;;3.40;53.40;;;;;;5071385;28;20237;-62
2024/01/30 03:36:32;;;;;;;6.70;5.60;;;3.30;52.60;;;;;;5064528;28;20298;-61
2024/01/30 03:38:59;;;;;;;6.20;5.40;;;3.20;52.80;;;;;;5069813;28;20278;-62
2024/01/30 03:41:26;;;;;;;5.50;4.73;;;3.30;53.10;;;;;;5074701;28;20225;-62
2024/01/30 03:43:52;;;;;;;8.03;5.30;;;3.50;52.30;;;;;;5073148;28;20241;-63
2024/01/30 03:46:18;;;;;;;5.17;4.67;;;3.30;52.50;;;;;;5075694;28;20287;-62
2024/01/30 03:48:45;;;;;;;5.47;4.60;;;3.40;52.60;;;;;;5075498;28;20235;-62
2024/01/30 03:51:14;;;;;;;6.80;5.20;;;3.20;52.40;;;;;;5074018;28;20221;-62
2024/01/30 03:53:41;;;;;;;5.43;4.80;;;3.10;52.80;;;;;;5078985;28;20620;-62
2024/01/30 03:56:07;;;;;;;5.60;5.10;;;3.20;53.20;;;;;;5067065;28;20230;-62
2024/01/30 03:58:33;;;;;;;8.03;5.93;;;3.10;53.10;;;;;;5070757;28;20229;-62
2024/01/30 04:01:00;;;;;;;5.43;4.93;;;3.20;53.20;;;;;;5072464;28;20656;-62
2024/01/30 04:03:27;;;;;;;7.07;5.10;;;3.40;52.70;;;;;;5082092;28;20193;-62
2024/01/30 04:05:53;;;;;;;7.63;5.20;;;3.20;52.40;;;;;;5074192;28;20455;-62
2024/01/30 04:08:20;;;;;;;6.83;5.00;;;3.20;52.90;;;;;;5074605;28;20244;-62
2024/01/30 04:10:47;;;;;;;5.40;4.83;;;3.20;52.80;;;;;;5074404;28;20228;-62
2024/01/30 04:13:13;;;;;;;8.57;4.93;;;3.40;52.60;;;;;;5063838;28;20229;-62
2024/01/30 04:15:39;;;;;;;6.13;4.80;;;3.10;52.40;;;;;;5063374;28;20638;-62
2024/01/30 04:18:06;;;;;;;7.23;5.33;;;3.00;53.10;;;;;;5064645;28;20228;-62
2024/01/30 04:20:33;;;;;;;6.57;4.80;;;3.10;53.10;;;;;;5066970;28;20252;-62
2024/01/30 04:22:59;;;;;;;6.67;5.03;;;3.10;52.70;;;;;;5069733;28;20665;-62
2024/01/30 04:25:26;;;;;;;6.73;4.60;;;3.20;53.20;;;;;;5074384;28;20259;-62
2024/01/30 04:27:52;;;;;;;5.50;4.97;;;3.20;52.10;;;;;;5074374;28;20248;-62
2024/01/30 04:30:19;;;;;;;6.10;5.17;;;3.20;52.30;;;;;;5074237;28;20267;-62
2024/01/30 04:32:45;;;;;;;5.67;5.00;;;3.20;52.50;;;;;;5068272;28;20225;-62
2024/01/30 04:35:12;;;;;;;10.40;6.43;;;3.10;52.30;;;;;;5067349;28;20314;-62
2024/01/30 04:37:38;;;;;;;6.87;5.00;;;3.00;53.30;;;;;;5073791;28;20244;-62
2024/01/30 04:40:05;;;;;;;5.97;5.20;;;3.00;53.00;;;;;;5069700;28;20260;-62
2024/01/30 04:42:31;;;;;;;6.83;5.03;;;3.00;52.80;;;;;;5074122;28;20315;-62
2024/01/30 04:44:58;;;;;;;5.97;5.17;;;3.10;53.10;;;;;;5082517;28;20556;-62
2024/01/30 04:47:24;;;;;;;7.20;4.97;;;3.20;52.10;;;;;;5079663;28;20237;-62
2024/01/30 04:49:51;;;;;;;5.87;4.67;;;3.10;52.30;;;;;;5067860;28;20197;-62
2024/01/30 04:52:18;;;;;;;5.60;4.53;;;3.00;52.30;;;;;;5064508;28;20226;-62
2024/01/30 04:54:44;;;;;;;5.10;4.60;;;3.00;52.80;;;;;;5072935;28;20232;-62
2024/01/30 04:57:12;;;;;;;8.73;5.13;;;3.10;53.10;;;;;;5077968;28;20197;-61
2024/01/30 04:59:38;;;;;;;7.37;5.10;;;3.30;52.40;;;;;;5074109;28;20269;-61
2024/01/30 05:02:05;;;;;;;6.93;4.93;;;3.30;52.10;;;;;;5073998;28;20248;-62
2024/01/30 05:04:31;;;;;;;5.90;4.80;;;3.20;51.60;;;;;;5081387;28;20675;-62
2024/01/30 05:06:58;;;;;;;5.07;4.43;;;3.00;52.30;;;;;;5073857;28;20263;-62
2024/01/30 05:09:24;;;;;;;5.23;4.60;;;3.10;52.30;;;;;;5060162;28;20193;-62
2024/01/30 05:11:51;;;;;;;8.53;5.17;;;2.90;52.30;;;;;;5068363;28;20667;-62
2024/01/30 05:14:18;;;;;;;6.20;4.77;;;2.80;52.70;;;;;;5073651;28;20211;-62
2024/01/30 05:16:46;;;;;;;7.40;4.90;;;2.70;52.80;;;;;;5075177;28;20205;-62
2024/01/30 05:19:13;;;;;;;6.63;4.93;;;2.80;53.20;;;;;;5072987;28;20225;-62
2024/01/30 05:21:39;;;;;;;7.03;4.90;;;2.80;52.90;;;;;;5064786;28;20252;-62
2024/01/30 05:24:06;;;;;;;6.13;5.17;;;2.80;53.70;;;;;;5067631;28;20289;-62
2024/01/30 05:26:33;;;;;;;7.80;5.37;;;2.90;53.00;;;;;;5070853;28;20205;-62
2024/01/30 05:28:59;;;;;;;8.50;5.47;;;2.80;53.50;;;;;;5073439;28;20241;-62
2024/01/30 05:31:27;;;;;;;8.27;5.63;;;2.90;53.00;;;;;;5073290;28;20754;-62
2024/01/30 05:33:53;;;;;;;9.27;6.00;;;2.80;52.90;;;;;;5072599;28;20284;-62
2024/01/30 05:36:20;;;;;;;7.37;6.67;;;2.70;53.10;;;;;;5077836;28;20233;-62
2024/01/30 05:38:47;;;;;;;6.83;5.57;;;2.60;53.40;;;;;;5067672;28;20262;-62
2024/01/30 05:41:13;;;;;;;6.20;5.40;;;2.60;53.60;;;;;;5067004;28;20253;-62
2024/01/30 05:43:40;;;;;;;7.67;6.20;;;2.90;53.50;;;;;;5066803;28;20595;-62
2024/01/30 05:46:06;;;;;;;10.60;6.30;;;2.80;52.90;;;;;;5072802;28;20734;-63
2024/01/30 05:48:35;;;;;;;9.67;6.90;;;2.70;53.10;;;;;;5073435;28;20236;-62
2024/01/30 05:51:01;;;;;;;10.03;6.63;;;2.70;53.40;;;;;;5072709;28;20264;-62
2024/01/30 05:53:28;;;;;;;10.03;6.23;;;2.80;53.90;;;;;;5072591;28;20667;-62
2024/01/30 05:55:54;;;;;;;9.23;6.13;;;2.80;52.90;;;;;;5071659;28;20274;-62
2024/01/30 05:58:21;;;;;;;7.43;5.50;;;2.60;53.30;;;;;;5064760;28;20240;-62
2024/01/30 06:00:47;;;;;;;7.60;5.73;;;2.50;53.90;;;;;;5070962;28;20229;-63
2024/01/30 06:03:14;;;;;;;9.00;5.50;;;2.50;53.90;;;;;;5072801;28;20634;-63
2024/01/30 06:05:40;;;;;;;7.90;5.70;;;2.50;54.00;;;;;;5072274;28;20232;-63
2024/01/30 06:08:07;;;;;;;10.00;5.77;;;2.70;53.60;;;;;;5064363;28;20307;-63
2024/01/30 06:10:33;;;;;;;8.17;5.30;;;2.80;53.60;;;;;;5072383;28;20871;-63
2024/01/30 06:13:00;;;;;;;8.57;5.80;;;2.90;53.00;;;;;;5071920;28;20229;-63
2024/01/30 06:15:29;;;;;;;10.13;6.73;;;2.70;53.10;;;;;;5065515;28;20244;-63
2024/01/30 06:17:56;;;;;;;9.27;6.63;;;2.70;54.30;;;;;;5072987;28;20278;-63
2024/01/30 06:20:22;;;;;;;6.67;5.10;;;2.80;52.90;;;;;;5071928;28;20633;-63
2024/01/30 06:22:49;;;;;;;7.87;5.43;;;2.70;53.00;;;;;;5065859;28;20305;-63
2024/01/30 06:25:16;;;;;;;8.27;5.30;;;3.00;53.10;;;;;;5067927;28;20214;-63
2024/01/30 06:27:43;;;;;;;9.07;5.80;;;3.00;53.10;;;;;;5072366;28;20572;-63
2024/01/30 06:30:09;;;;;;;12.87;5.50;;;3.10;53.10;;;;;;5071803;28;20248;-63
2024/01/30 06:32:36;;;;;;;6.33;5.40;;;3.30;52.30;;;;;;5072655;28;20260;-64
2024/01/30 06:35:02;;;;;;;8.23;4.57;;;3.40;51.90;;;;;;5070023;28;20248;-64
2024/01/30 06:37:29;;;;;;;7.90;5.93;;;3.30;51.70;;;;;;5071647;28;20209;-63
2024/01/30 06:39:56;;;;;;;11.97;5.97;;;3.10;52.30;;;;;;5066223;28;20245;-64
2024/01/30 06:42:25;;;;;;;9.87;5.77;;;3.20;52.50;;;;;;5065097;28;20376;-63
2024/01/30 06:44:51;;;;;;;11.47;6.90;;;3.00;52.60;;;;;;5069206;28;20213;-63
2024/01/30 06:47:18;;;;;;;9.20;6.23;;;3.00;53.10;;;;;;5074417;28;20609;-63
2024/01/30 06:49:45;;;;;;;7.70;5.37;;;3.00;53.10;;;;;;5071478;28;20222;-63
2024/01/30 06:52:11;;;;;;;9.63;6.20;;;3.10;53.10;;;;;;5072203;28;20766;-63
2024/01/30 06:54:38;;;;;;;9.60;6.27;;;3.10;53.10;;;;;;5076793;28;20210;-63
2024/01/30 06:57:04;;;;;;;12.93;6.30;;;3.30;53.30;;;;;;5067477;28;20306;-63
2024/01/30 06:59:31;;;;;;;11.33;6.13;;;3.30;53.30;;;;;;5069601;28;20259;-63
2024/01/30 07:18:24;;;;;;;9.47;5.60;;;3.50;53.50;;;;;;5060344;28;20710;-63
2024/01/30 07:20:51;;;;;;;11.87;5.63;;;3.60;52.60;;;;;;5063980;28;20311;-63
2024/01/30 07:23:17;;;;;;;11.57;5.37;;;3.60;52.50;;;;;;5057342;28;20290;-63
2024/01/30 07:25:44;;;;;;;8.87;3.93;;;3.80;50.20;;;;;;5056589;28;20206;-63
2024/01/30 07:28:12;;;;;;;9.63;4.60;;;3.90;48.80;;;;;;5051356;28;20684;-63
2024/01/30 07:30:38;;;;;;;7.73;4.83;;;4.10;47.80;;;;;;5051677;28;20279;-63
2024/01/30 07:33:05;;;;;;;6.97;4.60;;;4.20;46.70;;;;;;5058119;28;20213;-63
2024/01/30 07:35:32;;;;;;;11.67;5.10;;;4.40;46.50;;;;;;5064172;28;20202;-63
2024/01/30 07:37:59;;;;;;;12.00;5.73;;;4.30;47.10;;;;;;5062085;28;20270;-63
2024/01/30 07:40:25;;;;;;;7.60;4.67;;;4.20;48.50;;;;;;5063124;28;20223;-63
2024/01/30 07:42:52;;;;;;;11.67;5.90;;;4.30;47.40;;;;;;5058322;28;20233;-63
2024/01/30 07:45:22;;;;;;;12.67;5.07;;;4.30;48.30;;;;;;5060544;28;20201;-63
2024/01/30 07:47:48;;;;;;;9.50;6.00;;;4.20;48.70;;;;;;5062941;28;20206;-63
2024/01/30 07:50:15;;;;;;;9.77;5.93;;;4.30;49.40;;;;;;5057193;28;20209;-63
2024/01/30 07:52:41;;;;;;;11.53;5.20;;;4.20;49.10;;;;;;5052918;28;20347;-63
2024/01/30 07:55:08;;;;;;;16.97;5.93;;;4.30;49.40;;;;;;5061343;28;20294;-63
2024/01/30 07:57:35;;;;;;;8.60;5.00;;;4.40;49.50;;;;;;5056390;28;20293;-63
2024/01/30 08:00:02;;;;;;;7.13;4.77;;;4.50;47.90;;;;;;5053957;28;20319;-62
2024/01/30 08:02:29;;;;;;;7.40;3.97;;;4.50;47.70;;;;;;5052168;28;20222;-62
2024/01/30 08:04:55;;;;;;;7.67;4.20;;;4.60;46.70;;;;;;5062716;28;20286;-62
2024/01/30 08:07:22;;;;;;;5.73;3.90;;;4.60;47.10;;;;;;5060789;28;20211;-62
2024/01/30 08:09:48;;;;;;;9.60;4.67;;;4.80;45.30;;;;;;5053096;28;20241;-62
2024/01/30 08:12:15;;;;;;;10.43;4.30;;;4.80;47.10;;;;;;5041131;28;20304;-62
2024/01/30 08:14:41;;;;;;;7.80;4.60;;;4.90;46.30;;;;;;5058083;28;20201;-62
2024/01/30 08:17:08;;;;;;;13.93;4.90;;;4.90;46.60;;;;;;5055652;28;20282;-62
2024/01/30 08:19:35;;;;;;;8.00;4.57;;;4.90;46.40;;;;;;5055617;28;20257;-62
2024/01/30 08:22:01;;;;;;;6.27;4.17;;;5.00;45.90;;;;;;5053354;28;20350;-63
2024/01/30 08:24:28;;;;;;;6.33;4.03;;;5.00;45.90;;;;;;5052027;28;20678;-62
2024/01/30 08:26:54;;;;;;;6.97;3.87;;;5.10;45.30;;;;;;5058463;28;20308;-62
2024/01/30 08:29:21;;;;;;;9.83;4.00;;;5.20;45.30;;;;;;5045833;28;20209;-62
2024/01/30 08:31:47;;;;;;;5.20;3.60;;;5.30;44.80;;;;;;5056980;28;20233;-62
2024/01/30 08:34:14;;;;;;;13.97;4.97;;;5.40;44.40;;;;;;5043289;28;20352;-62
2024/01/30 08:36:41;;;;;;;11.00;6.00;;;5.50;44.00;;;;;;5046069;28;20217;-62
2024/01/30 08:39:07;;;;;;;7.13;4.37;;;5.50;44.40;;;;;;5055610;28;20217;-62
2024/01/30 08:41:34;;;;;;;6.30;3.87;;;5.60;44.80;;;;;;5037982;28;20323;-62
2024/01/30 08:44:01;;;;;;;7.70;3.70;;;5.60;44.30;;;;;;5034445;28;20433;-62
2024/01/30 08:46:27;;;;;;;8.27;4.20;;;5.70;43.60;;;;;;5038446;28;20256;-62
2024/01/30 08:48:54;;;;;;;5.10;3.63;;;6.00;44.70;;;;;;5048901;28;20210;-62
2024/01/30 08:51:20;;;;;;;7.63;3.93;;;6.00;43.40;;;;;;5062901;28;20318;-63
2024/01/30 08:53:47;;;;;;;4.33;3.93;;;6.30;42.90;;;;;;5061694;28;20208;-62
2024/01/30 08:56:13;;;;;;;9.07;4.23;;;6.50;43.50;;;;;;5065305;28;20204;-63
2024/01/30 08:58:40;;;;;;;8.57;4.23;;;6.70;42.70;;;;;;5065043;28;20235;-64
2024/01/30 09:01:06;;;;;;;6.30;4.20;;;7.00;41.30;;;;;;5065327;28;20228;-63
2024/01/30 09:03:33;;;;;;;6.73;3.73;;;7.40;39.90;;;;;;5070945;28;20212;-64
2024/01/30 09:06:00;;;;;;;7.13;4.30;;;7.80;39.00;;;;;;5076153;28;20259;-64
2024/01/30 09:08:26;;;;;;;8.57;4.57;;;7.90;39.20;;;;;;5069266;28;20260;-63
2024/01/30 09:10:53;;;;;;;5.97;4.13;;;8.20;37.90;;;;;;5070823;28;20665;-64
2024/01/30 09:13:20;;;;;;;7.30;3.83;;;8.30;38.40;;;;;;5071683;28;20201;-63
2024/01/30 09:15:46;;;;;;;8.13;4.10;;;8.50;37.70;;;;;;5061790;28;20198;-63
2024/01/30 09:18:13;;;;;;;6.47;4.07;;;8.70;37.00;;;;;;5035662;28;20237;-64
2024/01/30 09:20:39;;;;;;;10.00;4.23;;;8.90;37.70;;;;;;5054520;28;20272;-63
2024/01/30 09:23:06;;;;;;;7.40;4.40;;;9.10;37.00;;;;;;5073047;28;20202;-64
2024/01/30 09:25:33;;;;;;;8.17;4.60;;;9.40;37.20;;;;;;5069961;28;20205;-64
2024/01/30 09:28:00;;;;;;;8.73;5.03;;;9.50;36.00;;;;;;5079553;28;20617;-63
2024/01/30 09:30:27;;;;;;;8.60;4.20;;;9.60;35.90;;;;;;5058460;28;20214;-64
2024/01/30 09:32:53;;;;;;;6.23;3.63;;;9.80;36.00;;;;;;5067137;28;20732;-64
2024/01/30 09:35:20;;;;;;;8.03;4.37;;;10.00;35.50;;;;;;5073294;28;20633;-64
2024/01/30 09:37:46;;;;;;;7.90;4.00;;;10.20;33.40;;;;;;5072309;28;20204;-64
2024/01/30 09:40:13;;;;;;;8.07;4.37;;;10.50;33.80;;;;;;5073178;28;20223;-68
2024/01/30 09:42:39;;;;;;;8.47;4.10;;;10.60;32.50;;;;;;5061150;28;20657;-65
2024/01/30 09:45:06;;;;;;;9.90;4.40;;;10.70;32.90;;;;;;5050578;28;20704;-65
2024/01/30 09:47:33;;;;;;;9.30;4.33;;;10.90;31.30;;;;;;5056077;28;20205;-64
2024/01/30 09:49:59;;;;;;;8.20;4.93;;;11.00;32.20;;;;;;5051849;28;20205;-65
2024/01/30 09:52:26;;;;;;;13.93;4.37;;;11.30;32.70;;;;;;5053101;28;20232;-65
2024/01/30 09:54:53;;;;;;;11.47;4.50;;;11.50;33.50;;;;;;5055761;28;20619;-65
2024/01/30 09:57:20;;;;;;;7.80;4.00;;;11.80;32.40;;;;;;5056523;28;20796;-65
2024/01/30 09:59:47;;;;;;;10.37;4.17;;;12.00;31.40;;;;;;5050782;28;20206;-65
2024/01/30 10:02:13;;;;;;;8.57;3.80;;;12.10;31.30;;;;;;5053571;28;20225;-65
2024/01/30 10:04:40;;;;;;;12.80;4.37;;;12.30;29.40;;;;;;5053751;28;20219;-65
2024/01/30 10:07:06;;;;;;;6.57;3.90;;;12.60;30.90;;;;;;5054942;28;20303;-65
2024/01/30 10:09:33;;;;;;;8.07;4.30;;;12.60;30.40;;;;;;5050888;28;20224;-65
2024/01/30 10:12:00;;;;;;;9.03;3.97;;;12.80;29.60;;;;;;5055822;28;20232;-64
2024/01/30 10:14:26;;;;;;;8.67;3.80;;;13.00;29.50;;;;;;5048679;28;20208;-65
2024/01/30 10:16:53;;;;;;;9.43;3.83;;;13.20;29.60;;;;;;5048960;28;20201;-65
2024/01/30 10:19:20;;;;;;;9.77;3.83;;;13.30;29.00;;;;;;5048902;28;20258;-65
2024/01/30 10:21:46;;;;;;;6.80;3.50;;;13.40;29.40;;;;;;5050575;28;20322;-65
2024/01/30 10:24:13;;;;;;;9.63;3.43;;;13.40;28.80;;;;;;5056984;28;20554;-65
2024/01/30 10:26:40;;;;;;;10.00;3.67;;;13.70;28.20;;;;;;5063677;28;20213;-65
2024/01/30 10:29:06;;;;;;;10.80;4.20;;;13.80;28.50;;;;;;5060546;28;20233;-65
2024/01/30 10:31:33;;;;;;;12.53;3.57;;;13.90;28.20;;;;;;5061696;28;20249;-65
2024/01/30 10:33:59;;;;;;;7.20;3.00;;;13.50;27.90;;;;;;5071154;28;20258;-65
2024/01/30 10:36:26;;;;;;;8.00;3.33;;;13.30;27.80;;;;;;5071981;28;20267;-65
2024/01/30 10:38:52;;;;;;;5.30;2.60;;;13.10;26.80;;;;;;5071836;28;20202;-65
2024/01/30 10:41:19;;;;;;;11.03;5.00;;;13.00;27.50;;;;;;5071775;28;20607;-64
2024/01/30 10:43:45;;;;;;;15.67;7.17;;;13.10;27.60;;;;;;5071504;28;20262;-64
2024/01/30 10:46:13;;;;;;;19.57;9.90;;;13.40;28.30;;;;;;5065907;28;22448;-64
2024/01/30 10:48:42;;;;;;;16.63;10.57;;;13.80;28.60;;;;;;5057574;28;20293;-64
2024/01/30 10:51:09;;;;;;;15.87;8.43;;;14.20;28.90;;;;;;5059909;28;20224;-64
2024/01/30 10:53:35;;;;;;;3.43;2.83;;;14.50;27.30;;;;;;5054739;28;20216;-64
2024/01/30 10:56:02;;;;;;;5.80;4.07;;;14.50;24.10;;;;;;5055738;28;20272;-64
2024/01/30 10:58:29;;;;;;;11.67;5.93;;;14.60;26.60;;;;;;5055746;28;20215;-64
2024/01/30 11:00:55;;;;;;;11.47;4.57;;;14.80;27.50;;;;;;5056282;28;20216;-64
2024/01/30 11:03:22;;;;;;;7.80;4.10;;;14.90;27.10;;;;;;5066397;28;20207;-64
2024/01/30 11:05:48;;;;;;;11.27;4.83;;;15.20;26.30;;;;;;5068926;28;20208;-64
2024/01/30 11:08:15;;;;;;;14.90;5.83;;;15.20;26.20;;;;;;5071726;28;20204;-64
2024/01/30 11:10:41;;;;;;;13.60;4.43;;;15.60;27.50;;;;;;5071754;28;20218;-64
2024/01/30 11:13:08;;;;;;;7.07;3.73;;;15.40;24.50;;;;;;5063499;28;20209;-64
2024/01/30 11:15:34;;;;;;;9.13;3.77;;;15.20;25.10;;;;;;5071444;28;20258;-64
2024/01/30 11:18:01;;;;;;;6.40;3.13;;;15.30;25.60;;;;;;5062226;28;20268;-64
2024/01/30 11:20:27;;;;;;;6.63;2.80;;;15.30;25.00;;;;;;5062295;28;20231;-65
2024/01/30 11:22:54;;;;;;;5.40;2.70;;;15.30;25.10;;;;;;5060989;28;20286;-64
2024/01/30 11:25:20;;;;;;;4.73;3.03;;;15.30;24.10;;;;;;5059232;28;20230;-63
2024/01/30 11:27:47;;;;;;;3.30;2.70;;;15.30;24.00;;;;;;5049852;28;20204;-64
2024/01/30 11:30:14;;;;;;;2.60;2.40;;;15.60;24.00;;;;;;5071868;28;20263;-65
2024/01/30 11:32:40;;;;;;;4.90;2.63;;;15.60;23.60;;;;;;5068784;28;20302;-66
2024/01/30 11:35:08;;;;;;;3.93;2.50;;;15.90;24.20;;;;;;5061931;28;20570;-66
2024/01/30 11:37:35;;;;;;;2.90;2.60;;;16.20;23.70;;;;;;5072764;28;20598;-66
2024/01/30 11:40:02;;;;;;;2.70;2.30;;;16.70;23.70;;;;;;5068727;28;20675;-67
2024/01/30 11:42:28;;;;;;;10.60;3.73;;;16.20;24.90;;;;;;5069439;28;20595;-67
2024/01/30 11:44:55;;;;;;;5.47;2.37;;;15.80;24.50;;;;;;5056806;28;20361;-67
2024/01/30 11:47:21;;;;;;;5.90;2.60;;;15.40;24.30;;;;;;5066137;28;20205;-67
2024/01/30 11:49:48;;;;;;;4.67;2.10;;;15.70;24.30;;;;;;5071950;28;20272;-67
2024/01/30 11:52:15;;;;;;;4.37;2.20;;;16.90;23.20;;;;;;5068262;28;20227;-67
2024/01/30 11:54:41;;;;;;;5.60;2.37;;;18.00;21.90;;;;;;5069351;28;20655;-66
2024/01/30 11:57:08;;;;;;;5.30;2.50;;;18.20;20.80;;;;;;5053782;28;20254;-66
2024/01/30 11:59:34;;;;;;;3.73;2.60;;;19.30;20.70;;;;;;5044897;28;20212;-66
2024/01/30 12:02:01;;;;;;;3.70;2.17;;;19.10;19.80;;;;;;5050402;28;20229;-66
2024/01/30 12:04:28;;;;;;;6.50;2.63;;;17.60;21.60;;;;;;5049742;28;20603;-66
2024/01/30 12:06:54;;;;;;;4.53;2.60;;;17.00;22.00;;;;;;5051082;28;20254;-66
2024/01/30 12:09:21;;;;;;;5.10;2.83;;;16.40;22.80;;;;;;5059475;28;20203;-66
2024/01/30 12:11:48;;;;;;;4.63;2.50;;;16.50;23.40;;;;;;5050968;28;20224;-66
2024/01/30 12:14:15;;;;;;;5.20;2.70;;;16.30;23.40;;;;;;5055844;28;20212;-66
2024/01/30 12:16:42;;;;;;;3.53;2.20;;;16.70;23.30;;;;;;5049473;28;20270;-66
2024/01/30 12:19:09;;;;;;;5.20;2.73;;;17.00;22.70;;;;;;5058458;28;20209;-66
2024/01/30 12:21:35;;;;;;;4.73;2.33;;;17.10;21.70;;;;;;5049056;28;20229;-68
2024/01/30 12:24:02;;;;;;;2.87;2.10;;;17.40;22.00;;;;;;5055829;28;20278;-66
2024/01/30 12:26:29;;;;;;;3.27;2.23;;;16.70;21.40;;;;;;5054676;28;20296;-66
2024/01/30 12:28:55;;;;;;;3.20;2.60;;;16.90;21.40;;;;;;5063251;28;20209;-65
2024/01/30 12:31:22;;;;;;;4.23;2.70;;;17.20;21.00;;;;;;5060897;28;20566;-66
2024/01/30 12:33:48;;;;;;;4.07;2.50;;;17.00;21.80;;;;;;5060287;28;20205;-66
2024/01/30 12:36:15;;;;;;;4.33;2.67;;;16.90;22.80;;;;;;5068052;28;20234;-67
2024/01/30 12:38:41;;;;;;;7.93;2.50;;;16.30;22.70;;;;;;5072201;28;20241;-66
2024/01/30 12:41:08;;;;;;;2.60;2.40;;;16.10;23.00;;;;;;5073522;28;20714;-66
2024/01/30 12:43:34;;;;;;;3.03;2.40;;;15.90;22.50;;;;;;5076362;28;20216;-66
2024/01/30 12:46:01;;;;;;;3.70;2.13;;;15.60;22.60;;;;;;5066947;28;20276;-65
2024/01/30 12:48:29;;;;;;;2.73;2.40;;;15.40;22.70;;;;;;5052417;28;20209;-64
2024/01/30 12:50:56;;;;;;;3.33;2.03;;;15.30;23.40;;;;;;5078435;28;20225;-64
2024/01/30 12:53:22;;;;;;;3.63;2.10;;;15.50;23.70;;;;;;5074910;28;20216;-65
2024/01/30 12:55:49;;;;;;;2.80;2.00;;;15.60;23.20;;;;;;5077147;28;20205;-65
2024/01/30 12:58:16;;;;;;;4.83;2.37;;;15.70;22.70;;;;;;5086097;28;20702;-65
2024/01/30 13:00:43;;;;;;;3.70;2.10;;;15.80;22.20;;;;;;5073284;28;20209;-65
2024/01/30 13:03:09;;;;;;;4.70;2.50;;;15.90;22.10;;;;;;5074002;28;20237;-65
2024/01/30 13:05:36;;;;;;;3.43;2.50;;;16.10;21.60;;;;;;5062370;28;20201;-65